createdAt,value
2022-12-19T00:00:50.533Z,6.90
2022-12-19T00:03:28.085Z,6.90
2022-12-19T00:05:56.427Z,6.60
2022-12-19T00:08:24.510Z,6.60
2022-12-19T00:11:00.359Z,7.00
2022-12-19T00:13:32.964Z,6.70
2022-12-19T00:16:17.701Z,6.80
2022-12-19T00:18:49.238Z,6.10
2022-12-19T00:21:22.024Z,6.70
2022-12-19T00:23:51.616Z,6.50
2022-12-19T00:26:32.273Z,7.20
2022-12-19T00:29:08.633Z,7.70
2022-12-19T00:31:39.304Z,7.70
2022-12-19T00:34:09.823Z,8.00
2022-12-19T00:36:37.944Z,8.10
2022-12-19T00:39:09.331Z,8.50
2022-12-19T00:41:41.680Z,8.60
2022-12-19T00:44:18.000Z,8.30
2022-12-19T00:46:52.475Z,8.90
2022-12-19T00:49:21.777Z,9.20
2022-12-19T00:51:50.173Z,8.70
2022-12-19T00:54:18.242Z,9.00
2022-12-19T00:56:46.418Z,8.70
2022-12-19T00:59:14.554Z,8.40
2022-12-19T01:01:45.744Z,8.60
2022-12-19T01:04:28.048Z,8.80
2022-12-19T01:06:59.775Z,8.80
2022-12-19T01:09:35.977Z,8.40
2022-12-19T01:12:25.289Z,9.00
2022-12-19T01:15:02.898Z,9.20
2022-12-19T01:17:37.073Z,8.30
2022-12-19T01:20:22.238Z,8.50
2022-12-19T01:23:00.094Z,8.50
2022-12-19T01:25:29.329Z,9.20
2022-12-19T01:27:58.186Z,8.90
2022-12-19T01:30:28.849Z,9.30
2022-12-19T01:32:59.675Z,8.80
2022-12-19T01:35:28.870Z,8.70
2022-12-19T01:38:06.564Z,8.80
2022-12-19T01:40:37.063Z,8.30
2022-12-19T01:43:06.320Z,8.40
2022-12-19T01:45:43.546Z,8.10
2022-12-19T01:48:32.249Z,8.80
2022-12-19T01:51:05.863Z,8.90
2022-12-19T01:53:49.268Z,8.50
2022-12-19T01:56:26.126Z,7.70
2022-12-19T01:59:05.796Z,8.80
2022-12-19T02:01:46.725Z,8.10
2022-12-19T02:04:30.980Z,8.50
2022-12-19T02:07:14.403Z,8.60
2022-12-19T02:09:56.941Z,8.10
2022-12-19T02:12:32.527Z,8.20
2022-12-19T02:15:03.511Z,8.10
2022-12-19T02:18:01.092Z,8.10
2022-12-19T02:21:07.834Z,8.60
2022-12-19T02:24:17.786Z,7.60
2022-12-19T02:27:06.014Z,8.30
2022-12-19T02:30:01.398Z,8.30
2022-12-19T02:32:45.840Z,8.00
2022-12-19T02:35:32.451Z,7.70
2022-12-19T02:38:17.414Z,8.30
2022-12-19T02:43:32.692Z,7.30
2022-12-19T02:46:03.463Z,7.90
2022-12-19T02:48:34.961Z,8.00
2022-12-19T02:51:05.669Z,7.60
2022-12-19T02:53:35.373Z,7.60
2022-12-19T02:56:27.480Z,7.50
2022-12-19T02:59:15.769Z,7.40
2022-12-19T03:02:24.659Z,7.50
2022-12-19T03:05:18.687Z,7.50
2022-12-19T03:08:01.965Z,7.60
2022-12-19T03:11:00.418Z,7.60
2022-12-19T03:13:59.357Z,7.10
2022-12-19T03:16:28.449Z,7.40
2022-12-19T03:18:58.141Z,7.60
2022-12-19T03:21:41.508Z,7.50
2022-12-19T03:24:13.209Z,6.70
2022-12-19T03:27:26.401Z,7.80
2022-12-19T03:30:15.702Z,7.50
2022-12-19T03:32:48.215Z,7.50
2022-12-19T03:35:26.867Z,7.90
2022-12-19T03:38:03.462Z,6.90
2022-12-19T03:40:37.866Z,7.60
2022-12-19T03:46:02.786Z,7.40
2022-12-19T03:48:34.622Z,7.50
2022-12-19T03:51:29.935Z,7.30
2022-12-19T03:54:13.614Z,7.00
2022-12-19T03:57:10.932Z,7.40
2022-12-19T03:59:50.980Z,6.80
2022-12-19T04:02:22.157Z,7.50
2022-12-19T04:05:01.083Z,7.20
2022-12-19T04:07:30.508Z,6.80
2022-12-19T04:10:02.889Z,7.80
2022-12-19T04:12:39.397Z,7.50
2022-12-19T04:15:09.298Z,7.40
2022-12-19T04:17:49.481Z,7.00
2022-12-19T04:20:22.488Z,7.00
2022-12-19T04:23:00.892Z,6.70
2022-12-19T04:25:46.547Z,7.20
2022-12-19T04:28:22.655Z,7.30
2022-12-19T04:30:52.091Z,6.70
2022-12-19T04:33:20.793Z,7.20
2022-12-19T04:35:49.204Z,7.10
2022-12-19T04:38:17.395Z,6.70
2022-12-19T04:40:48.439Z,6.90
2022-12-19T04:43:16.317Z,6.50
2022-12-19T04:45:44.662Z,7.10
2022-12-19T04:48:12.874Z,7.00
2022-12-19T04:50:41.492Z,6.80
2022-12-19T04:53:09.890Z,7.00
2022-12-19T04:55:38.069Z,7.00
2022-12-19T04:58:07.560Z,7.00
2022-12-19T05:00:35.905Z,6.90
2022-12-19T05:03:04.111Z,6.60
2022-12-19T05:05:32.469Z,6.70
2022-12-19T05:08:00.785Z,6.90
2022-12-19T05:10:28.774Z,7.40
2022-12-19T05:12:57.025Z,6.50
2022-12-19T05:15:25.109Z,6.40
2022-12-19T05:17:53.124Z,7.50
2022-12-19T05:20:21.175Z,6.50
2022-12-19T05:22:49.856Z,6.70
2022-12-19T05:25:17.993Z,6.40
2022-12-19T05:27:46.855Z,6.60
2022-12-19T05:30:15.015Z,6.90
2022-12-19T05:32:43.134Z,6.70
2022-12-19T05:35:11.160Z,6.40
2022-12-19T05:37:39.239Z,6.70
2022-12-19T05:40:08.663Z,6.90
2022-12-19T05:42:36.672Z,7.10
2022-12-19T05:45:06.316Z,6.50
2022-12-19T05:47:34.739Z,7.10
2022-12-19T05:50:04.093Z,7.10
2022-12-19T05:52:32.476Z,6.90
2022-12-19T05:55:01.378Z,6.50
2022-12-19T05:57:29.496Z,6.80
2022-12-19T05:59:59.418Z,7.10
2022-12-19T06:02:28.919Z,7.40
2022-12-19T06:04:57.395Z,7.00
2022-12-19T06:07:25.965Z,7.00
2022-12-19T06:09:53.932Z,7.00
2022-12-19T06:12:21.903Z,7.40
2022-12-19T06:14:50.087Z,7.10
2022-12-19T06:17:19.115Z,7.40
2022-12-19T06:19:47.085Z,8.10
2022-12-19T06:22:16.442Z,7.70
2022-12-19T06:24:44.521Z,7.70
2022-12-19T06:27:13.200Z,8.60
2022-12-19T06:29:41.229Z,8.20
2022-12-19T06:32:09.577Z,8.20
2022-12-19T06:35:03.301Z,8.40
2022-12-19T06:37:28.954Z,7.70
2022-12-19T06:39:57.317Z,8.00
2022-12-19T06:42:25.736Z,8.80
2022-12-19T06:44:56.387Z,8.20
2022-12-19T06:47:25.655Z,8.30
2022-12-19T06:49:53.841Z,8.10
2022-12-19T06:52:22.594Z,8.30
2022-12-19T06:54:50.763Z,8.40
2022-12-19T06:57:18.777Z,8.00
2022-12-19T06:59:46.906Z,8.50
2022-12-19T07:02:30.426Z,7.60
2022-12-19T07:05:06.659Z,7.60
2022-12-19T07:07:34.601Z,8.00
2022-12-19T07:10:07.451Z,8.60
2022-12-19T07:12:36.759Z,7.80
2022-12-19T07:15:06.270Z,8.00
2022-12-19T07:17:38.127Z,7.30
2022-12-19T07:20:07.044Z,7.60
2022-12-19T07:22:36.911Z,7.20
2022-12-19T07:25:06.433Z,7.70
2022-12-19T07:27:36.277Z,7.70
2022-12-19T07:30:08.066Z,7.60
2022-12-19T07:32:36.495Z,7.50
2022-12-19T07:35:06.026Z,6.70
2022-12-19T07:37:34.273Z,7.20
2022-12-19T07:40:02.383Z,7.70
2022-12-19T07:42:32.743Z,7.90
2022-12-19T07:45:01.963Z,7.60
2022-12-19T07:47:30.046Z,7.60
2022-12-19T07:49:58.829Z,7.10
2022-12-19T07:52:27.759Z,7.80
2022-12-19T07:54:55.718Z,7.10
2022-12-19T07:57:23.767Z,7.10
2022-12-19T07:59:51.730Z,7.50
2022-12-19T08:02:19.768Z,7.30
2022-12-19T08:04:48.088Z,7.30
2022-12-19T08:07:16.089Z,6.90
2022-12-19T08:09:44.424Z,7.10
2022-12-19T08:12:12.328Z,7.20
2022-12-19T08:14:40.463Z,6.60
2022-12-19T08:17:24.802Z,6.80
2022-12-19T08:19:53.268Z,6.70
2022-12-19T08:22:21.593Z,6.10
2022-12-19T08:24:51.228Z,6.30
2022-12-19T08:27:20.243Z,6.40
2022-12-19T08:29:48.252Z,6.70
2022-12-19T08:32:20.926Z,6.40
2022-12-19T08:34:51.006Z,6.70
2022-12-19T08:37:19.035Z,6.70
2022-12-19T08:39:47.616Z,6.70
2022-12-19T08:42:15.772Z,6.30
2022-12-19T08:44:43.756Z,6.00
2022-12-19T08:47:11.933Z,6.40
2022-12-19T08:49:40.614Z,6.50
2022-12-19T08:52:08.799Z,6.30
2022-12-19T08:54:37.097Z,6.20
2022-12-19T08:57:05.181Z,6.30
2022-12-19T08:59:33.114Z,6.10
2022-12-19T09:02:02.639Z,6.10
2022-12-19T09:05:07.365Z,6.40
2022-12-19T09:07:19.024Z,5.90
2022-12-19T09:09:47.420Z,6.20
2022-12-19T09:12:16.923Z,6.40
2022-12-19T09:14:45.103Z,6.30
2022-12-19T09:17:13.557Z,6.20
2022-12-19T09:19:47.803Z,6.10
2022-12-19T09:22:17.179Z,6.60
2022-12-19T09:24:45.947Z,6.10
2022-12-19T09:27:14.744Z,6.00
2022-12-19T09:29:43.874Z,6.60
2022-12-19T09:32:12.650Z,6.00
2022-12-19T09:34:40.890Z,5.90
2022-12-19T09:37:17.298Z,6.50
2022-12-19T09:39:48.134Z,6.10
2022-12-19T09:42:25.514Z,6.30
2022-12-19T09:45:02.198Z,6.30
2022-12-19T09:47:33.207Z,6.20
2022-12-19T09:50:02.737Z,6.40
2022-12-19T09:52:42.298Z,6.30
2022-12-19T09:55:32.895Z,6.10
2022-12-19T09:58:37.779Z,6.50
2022-12-19T10:01:20.003Z,6.40
2022-12-19T10:04:09.491Z,6.70
2022-12-19T10:07:08.829Z,6.50
2022-12-19T10:11:54.793Z,6.50
2022-12-19T10:13:04.848Z,6.60
2022-12-19T10:16:05.922Z,6.60
2022-12-19T10:19:05.926Z,6.40
2022-12-19T10:22:18.890Z,6.40
2022-12-19T10:25:16.106Z,6.10
2022-12-19T10:28:17.149Z,6.60
2022-12-19T10:31:17.243Z,6.80
2022-12-19T10:33:56.102Z,6.40
2022-12-19T10:36:48.693Z,6.60
2022-12-19T10:39:25.109Z,6.60
2022-12-19T10:42:03.019Z,8.70
2022-12-19T10:44:36.501Z,8.10
2022-12-19T10:47:04.900Z,8.50
2022-12-19T10:49:33.056Z,8.60
2022-12-19T10:52:08.112Z,9.30
2022-12-19T10:54:37.086Z,8.50
2022-12-19T10:57:26.904Z,8.70
2022-12-19T11:00:01.981Z,8.90
2022-12-19T11:02:36.586Z,8.90
2022-12-19T11:05:39.181Z,8.80
2022-12-19T11:08:07.922Z,9.10
2022-12-19T11:14:40.935Z,8.00
2022-12-19T11:19:55.153Z,8.30
2022-12-19T11:22:19.873Z,9.00
2022-12-19T11:29:26.348Z,8.70
2022-12-19T11:30:35.459Z,9.10
2022-12-19T11:30:36.056Z,8.70
2022-12-19T11:30:36.553Z,9.50
2022-12-19T11:34:24.032Z,9.80
2022-12-19T11:37:07.376Z,9.30
2022-12-19T11:39:53.451Z,9.50
2022-12-19T11:43:18.162Z,9.30
2022-12-19T11:46:00.278Z,9.50
2022-12-19T11:48:57.071Z,9.80
2022-12-19T11:52:06.327Z,10.60
2022-12-19T11:54:59.933Z,10.30
2022-12-19T11:57:28.007Z,10.30
2022-12-19T12:00:02.960Z,10.00
2022-12-19T12:03:13.886Z,9.80
2022-12-19T12:05:48.315Z,9.70
2022-12-19T12:11:39.142Z,10.30
2022-12-19T12:20:54.222Z,9.40
2022-12-19T12:28:16.450Z,10.00
2022-12-19T12:31:08.553Z,10.20
2022-12-19T12:31:45.491Z,9.90
2022-12-19T12:31:56.044Z,10.00
2022-12-19T12:32:00.976Z,9.70
2022-12-19T12:35:50.923Z,8.70
2022-12-19T12:35:57.123Z,8.70
2022-12-19T12:38:25.835Z,8.90
2022-12-19T12:41:07.628Z,9.40
2022-12-19T12:43:58.191Z,8.80
2022-12-19T12:46:42.987Z,9.20
2022-12-19T12:49:33.070Z,8.80
2022-12-19T12:52:04.946Z,8.20
2022-12-19T12:54:45.105Z,8.50
2022-12-19T12:57:29.977Z,8.60
2022-12-19T13:00:28.521Z,8.50
2022-12-19T13:03:13.772Z,8.70
2022-12-19T13:06:34.280Z,8.20
2022-12-19T13:09:09.538Z,8.00
2022-12-19T13:12:21.884Z,8.20
2022-12-19T13:14:53.277Z,7.80
2022-12-19T13:17:47.715Z,8.00
2022-12-19T13:20:17.844Z,7.80
2022-12-19T13:23:06.487Z,7.50
2022-12-19T13:25:34.868Z,8.00
2022-12-19T13:28:02.946Z,9.40
2022-12-19T13:30:50.130Z,9.30
2022-12-19T13:33:23.489Z,9.70
2022-12-19T13:39:30.361Z,8.60
2022-12-19T13:39:54.509Z,9.40
2022-12-19T13:42:02.843Z,9.20
2022-12-19T13:44:42.254Z,8.60
2022-12-19T13:47:18.890Z,8.70
2022-12-19T13:49:51.209Z,8.40
2022-12-19T13:52:20.606Z,8.50
2022-12-19T13:54:55.955Z,8.40
2022-12-19T13:57:31.840Z,8.40
2022-12-19T14:00:10.035Z,8.00
2022-12-19T14:02:47.215Z,8.30
2022-12-19T14:06:17.701Z,7.90
2022-12-19T14:08:25.278Z,8.50
2022-12-19T14:11:40.757Z,7.80
2022-12-19T14:14:17.853Z,8.00
2022-12-19T14:16:50.574Z,7.20
2022-12-19T14:19:22.918Z,7.40
2022-12-19T14:22:04.748Z,7.60
2022-12-19T14:24:41.785Z,7.60
2022-12-19T14:28:19.581Z,7.30
2022-12-19T14:30:30.903Z,7.40
2022-12-19T14:33:45.063Z,7.70
2022-12-19T14:36:10.923Z,7.50
2022-12-19T14:39:24.087Z,7.40
2022-12-19T14:42:04.576Z,7.70
2022-12-19T14:52:08.328Z,7.30
2022-12-19T14:54:05.399Z,7.00
2022-12-19T14:54:40.648Z,7.40
2022-12-19T14:57:29.155Z,7.60
2022-12-19T15:00:34.914Z,7.40
2022-12-19T15:03:30.953Z,7.30
2022-12-19T15:07:05.231Z,7.70
2022-12-19T15:11:00.108Z,7.40
2022-12-19T15:14:03.963Z,7.90
2022-12-19T15:15:48.093Z,7.70
2022-12-19T15:18:34.010Z,7.30
2022-12-19T15:21:08.370Z,7.20
2022-12-19T15:23:36.661Z,8.00
2022-12-19T15:26:12.154Z,7.70
2022-12-19T15:28:50.253Z,7.10
2022-12-19T15:31:35.336Z,7.90
2022-12-19T15:37:15.422Z,7.90
2022-12-19T15:39:45.254Z,7.30
2022-12-19T15:42:25.044Z,7.30
2022-12-19T15:44:56.718Z,7.30
2022-12-19T15:47:37.118Z,7.00
2022-12-19T15:50:23.988Z,7.20
2022-12-19T15:52:57.475Z,7.30
2022-12-19T15:55:29.668Z,7.40
2022-12-19T15:58:03.392Z,7.70
2022-12-19T16:00:37.281Z,7.60
2022-12-19T16:05:56.340Z,7.50
2022-12-19T16:08:28.357Z,7.70
2022-12-19T16:11:01.648Z,7.30
2022-12-19T16:13:36.420Z,7.40
2022-12-19T16:18:42.717Z,7.10
2022-12-19T16:21:27.502Z,8.10
2022-12-19T16:24:01.611Z,7.50
2022-12-19T16:26:37.831Z,7.70
2022-12-19T16:29:14.278Z,8.30
2022-12-19T16:31:42.570Z,7.60
2022-12-19T16:34:17.763Z,7.20
2022-12-19T16:36:46.348Z,6.90
2022-12-19T16:39:15.646Z,7.20
2022-12-19T16:41:45.356Z,7.30
2022-12-19T16:44:25.706Z,7.40
2022-12-19T16:46:53.823Z,7.60
2022-12-19T16:49:23.174Z,7.20
2022-12-19T16:51:52.482Z,6.80
2022-12-19T16:54:20.452Z,7.10
2022-12-19T16:56:54.181Z,6.60
2022-12-19T16:59:34.327Z,7.50
2022-12-19T17:02:15.973Z,7.70
2022-12-19T17:04:50.461Z,7.70
2022-12-19T17:07:21.783Z,7.90
2022-12-19T17:09:49.839Z,8.00
2022-12-19T17:12:18.706Z,8.50
2022-12-19T17:14:47.335Z,8.50
2022-12-19T17:17:16.106Z,8.20
2022-12-19T17:19:45.968Z,8.70
2022-12-19T17:22:16.857Z,8.90
2022-12-19T17:24:46.848Z,7.60
2022-12-19T17:27:17.590Z,7.90
2022-12-19T17:29:47.308Z,8.30
2022-12-19T17:32:23.483Z,8.30
2022-12-19T17:34:52.950Z,8.60
2022-12-19T17:37:21.564Z,8.90
2022-12-19T17:39:49.550Z,7.90
2022-12-19T17:42:25.071Z,8.00
2022-12-19T17:44:53.066Z,7.70
2022-12-19T17:47:21.320Z,8.10
2022-12-19T17:49:50.195Z,8.40
2022-12-19T17:52:20.093Z,8.10
2022-12-19T17:54:48.161Z,8.20
2022-12-19T17:57:18.008Z,8.30
2022-12-19T17:59:48.757Z,8.50
2022-12-19T18:02:20.903Z,8.30
2022-12-19T18:04:51.186Z,8.70
2022-12-19T18:07:20.034Z,8.60
2022-12-19T18:09:48.213Z,8.60
2022-12-19T18:12:16.111Z,8.10
2022-12-19T18:14:44.304Z,8.50
2022-12-19T18:17:21.970Z,8.60
2022-12-19T18:19:50.374Z,8.40
2022-12-19T18:22:18.581Z,8.60
2022-12-19T18:24:46.515Z,8.70
2022-12-19T18:27:14.646Z,9.10
2022-12-19T18:29:42.923Z,8.30
2022-12-19T18:32:19.595Z,8.50
2022-12-19T18:34:47.671Z,9.00
2022-12-19T18:37:16.093Z,8.80
2022-12-19T18:39:44.182Z,8.40
2022-12-19T18:42:22.228Z,9.20
2022-12-19T18:44:50.409Z,8.40
2022-12-19T18:47:25.578Z,8.40
2022-12-19T18:49:54.137Z,8.70
2022-12-19T18:52:22.298Z,8.90
2022-12-19T18:54:52.015Z,8.00
2022-12-19T18:57:20.495Z,8.10
2022-12-19T18:59:50.334Z,8.70
2022-12-19T19:02:28.097Z,8.50
2022-12-19T19:04:56.682Z,8.60
2022-12-19T19:07:24.639Z,9.20
2022-12-19T19:09:52.622Z,8.60
2022-12-19T19:12:43.988Z,8.20
2022-12-19T19:15:12.221Z,8.60
2022-12-19T19:17:42.459Z,9.00
2022-12-19T19:20:11.229Z,8.60
2022-12-19T19:22:39.275Z,8.60
2022-12-19T19:25:09.214Z,8.80
2022-12-19T19:27:38.339Z,8.60
2022-12-19T19:30:08.254Z,9.00
2022-12-19T19:32:43.980Z,8.70
2022-12-19T19:35:16.249Z,9.00
2022-12-19T19:37:47.712Z,8.20
2022-12-19T19:40:16.528Z,8.20
2022-12-19T19:42:44.763Z,8.80
2022-12-19T19:45:13.668Z,8.60
2022-12-19T19:47:42.657Z,8.70
2022-12-19T19:50:12.465Z,8.80
2022-12-19T19:52:40.847Z,8.30
2022-12-19T19:55:10.431Z,8.20
2022-12-19T19:57:40.885Z,8.50
2022-12-19T20:00:10.530Z,8.40
2022-12-19T20:02:42.079Z,8.70
2022-12-19T20:05:11.606Z,8.20
2022-12-19T20:07:39.711Z,8.60
2022-12-19T20:10:10.453Z,8.20
2022-12-19T20:12:38.866Z,7.30
2022-12-19T20:15:09.829Z,8.00
2022-12-19T20:17:38.048Z,7.70
2022-12-19T20:20:07.804Z,8.20
2022-12-19T20:22:35.955Z,8.30
2022-12-19T20:25:04.208Z,9.20
2022-12-19T20:27:32.282Z,10.20
2022-12-19T20:30:00.582Z,10.20
2022-12-19T20:32:30.691Z,10.60
2022-12-19T20:34:58.851Z,10.40
2022-12-19T20:37:26.922Z,10.60
2022-12-19T20:39:55.096Z,10.00
2022-12-19T20:42:22.978Z,10.80
2022-12-19T20:44:51.545Z,10.50
2022-12-19T20:47:19.499Z,11.10
2022-12-19T20:49:47.443Z,11.20
2022-12-19T20:52:15.774Z,11.20
2022-12-19T20:54:43.840Z,11.30
2022-12-19T20:57:11.877Z,10.90
2022-12-19T20:59:39.888Z,11.30
2022-12-19T21:02:08.215Z,11.90
2022-12-19T21:04:37.123Z,11.40
2022-12-19T21:07:05.632Z,11.70
2022-12-19T21:09:33.608Z,11.90
2022-12-19T21:12:01.666Z,10.90
2022-12-19T21:14:30.353Z,11.70
2022-12-19T21:16:58.426Z,10.80
2022-12-19T21:19:26.386Z,11.00
2022-12-19T21:21:54.576Z,11.40
2022-12-19T21:24:24.159Z,11.00
2022-12-19T21:26:57.699Z,11.40
2022-12-19T21:29:26.587Z,11.50
2022-12-19T21:31:54.863Z,11.40
2022-12-19T21:34:23.120Z,10.80
2022-12-19T21:36:51.192Z,10.30
2022-12-19T21:39:20.817Z,10.20
2022-12-19T21:41:49.388Z,10.40
2022-12-19T21:44:18.191Z,10.20
2022-12-19T21:46:46.599Z,9.60
2022-12-19T21:49:14.728Z,10.30
2022-12-19T21:51:42.798Z,10.20
2022-12-19T21:54:10.868Z,10.00
2022-12-19T21:56:41.802Z,10.50
2022-12-19T21:59:16.552Z,10.20
2022-12-19T22:01:45.921Z,9.90
2022-12-19T22:04:22.141Z,9.40
2022-12-19T22:06:51.511Z,9.80
2022-12-19T22:09:23.077Z,9.60
2022-12-19T22:11:51.944Z,10.00
2022-12-19T22:14:20.088Z,9.50
2022-12-19T22:16:48.458Z,9.20
2022-12-19T22:19:19.236Z,9.20
2022-12-19T22:21:48.098Z,8.90
2022-12-19T22:24:17.995Z,9.00
2022-12-19T22:26:46.218Z,8.50
2022-12-19T22:29:16.995Z,8.40
2022-12-19T22:31:46.714Z,8.90
2022-12-19T22:34:21.349Z,9.00
2022-12-19T22:39:20.708Z,8.30
2022-12-19T22:41:49.087Z,8.50
2022-12-19T22:44:23.985Z,8.80
2022-12-19T22:46:52.964Z,8.90
2022-12-19T22:49:21.254Z,8.50
2022-12-19T22:51:50.100Z,8.90
2022-12-19T22:54:18.031Z,8.10
2022-12-19T22:56:46.325Z,8.00
2022-12-19T22:59:14.603Z,7.70
2022-12-19T23:01:43.818Z,7.60
2022-12-19T23:04:15.639Z,8.40
2022-12-19T23:06:44.539Z,8.80
2022-12-19T23:09:17.600Z,9.40
2022-12-19T23:11:49.382Z,8.80
2022-12-19T23:14:20.282Z,8.70
2022-12-19T23:16:49.045Z,8.10
2022-12-19T23:19:17.839Z,8.20
2022-12-19T23:21:46.205Z,7.80
2022-12-19T23:24:14.478Z,7.90
2022-12-19T23:26:42.767Z,7.80
2022-12-19T23:29:15.130Z,7.30
2022-12-19T23:31:47.081Z,7.80
2022-12-19T23:34:16.804Z,7.60
2022-12-19T23:37:10.720Z,7.00
2022-12-19T23:39:34.026Z,7.60
2022-12-19T23:42:02.161Z,7.10
2022-12-19T23:44:30.602Z,7.00
2022-12-19T23:47:03.119Z,7.00
2022-12-19T23:49:33.809Z,7.00
2022-12-19T23:52:01.844Z,6.90
2022-12-19T23:54:30.347Z,7.00
2022-12-19T23:56:58.524Z,6.00
2022-12-19T23:59:26.578Z,6.80
